Here is the Quick Look data you requested

The Data originates at the National Weather Service, and is made available here by the UAlbany Department of Atmospheric and Environmental Sciences

Surface Observations

KABE 190751Z 33007KT 10SM OVC032 M03/M09 A3045 RMK AO2 SLP317 T10281094=
KAFJ 190756Z AUTO 00000KT 10SM CLR M08/M10 A3054 RMK AO2 SLP360 T10831100
 FZRANO=
KAGC 190753Z 31003KT 10SM CLR M08/M10 A3050 RMK AO2 SLP351 T10781100=
KAOO 190753Z AUTO 31015KT 10SM CLR M07/M13 A3044 RMK AO2 SLP332 T10721128=
KAVP 190754Z 32007KT 10SM BKN027 M07/M12 A3043 RMK AO2 SLP315 T10671117=
KBFD 190753Z AUTO 28004KT 9SM CLR M14/M16 A3038 RMK AO2 SLP326 T11441161=
KBTP 190756Z AUTO 00000KT 10SM CLR M12/M14 A3051 RMK AO2 SLP361 T11171139
 FZRANO=
KDUJ 190753Z AUTO 26004KT 10SM CLR M12/M14 A3042 RMK AO2 SLP331 T11171139 $=
KDYL 190754Z AUTO 34007G14KT 10SM BKN035 M04/M10 A3043 RMK AO2 SLP314 T10441100=
KERI 190751Z AUTO 16003KT 10SM CLR M13/M16 A3055 RMK AO2 SLP360 T11331156 TSNO=
KFIG 190754Z AUTO 24005KT 10SM FEW015 M09/M12 A3045 RMK AO2 SLP336 T10941122=
KGKJ 190753Z AUTO 03003KT 10SM CLR M13/M14 A3048 RMK AO2 SLP347 I1000 T11281144
 TSNO=
KIDI 190755Z AUTO 00000KT 10SM CLR M09/M11 A3051 RMK A01=
KIPT 190754Z AUTO 31004KT 10SM CLR M06/M12 A3047 RMK AO2 SLP327 T10611122=
KJST 190754Z AUTO 29008KT 10SM OVC012 M10/M13 A3038 RMK AO2 SLP327 T11001128 $=
KLBE 190755Z AUTO 00000KT 10SM CLR M08/M10 A3051 RMK AO2=
KLNS 190753Z AUTO 32007KT 10SM CLR M02/M09 A3046 RMK AO2 SLP317 T10171089=
KMPO 190753Z AUTO 30011KT 9SM -SN OVC014 M10/M13 A3032 RMK AO2 SNB16 SLP300
 P0000 T11001128 TSNO $=
KMUI 190756Z AUTO 00000KT 10SM OVC035 M03/M11 A3046 RMK AO2 SLP323 T10331108
 PNO $=
KPHL 190754Z 33011KT 10SM FEW280 M01/M09 A3046 RMK AO2 SLP315 T10111094 $=
KPIT 190751Z 33004KT 10SM FEW028 SCT150 M09/M11 A3051 RMK AO2 SLP359 T10891106=
KPNE 190754Z AUTO 36012KT 10SM CLR M02/M09 A3047 RMK AO2 SLP318 T10221094=
KPTW 190754Z AUTO 33006KT 10SM CLR M04/M12 A3046 RMK AO2 SLP316 T10391122=
KRDG 190754Z AUTO 33013KT 10SM CLR M03/M09 A3045 RMK AO2 SLP321 T10331094=
KSEG 190753Z AUTO 30007KT 10SM FEW034 M04/M12 A3049 RMK AO2 SLP332 T10441117 $=
KTHV 190753Z AUTO 33006KT 10SM CLR M03/M09 A3047 RMK AO2 SLP327 T10331094=
KUNV 190756Z AUTO 00000KT 10SM CLR M08/M12 A3046 RMK AO2 T10791123=